Time;durP1;ratioP1;P1;durP2;ratioP2;P2;SDS_P1;SDS_P2;PMS_P1;PMS_P2;Temp;Humidity;BMP_temperature;BMP_pressure;BME280_temperature;BME280_humidity;BME280_pressure;Samples;Min_cycle;Max_cycle;Signal;HPM_P1;HPM_P2
2021/06/19 00:00:18;;;;;;;8.73;7.30;;;27.40;53.30;;;;;;5112482;28;20668;-53
2021/06/19 00:02:45;;;;;;;12.83;6.33;;;27.40;53.40;;;;;;5106417;28;20680;-53
2021/06/19 00:05:13;;;;;;;8.43;7.40;;;27.40;53.60;;;;;;5092334;28;20656;-52
2021/06/19 00:07:40;;;;;;;8.70;7.17;;;27.30;53.60;;;;;;5092440;28;20688;-53
2021/06/19 00:10:08;;;;;;;8.50;6.73;;;27.30;53.90;;;;;;5092475;28;20667;-53
2021/06/19 00:12:37;;;;;;;9.10;6.77;;;27.20;54.10;;;;;;5101973;28;20644;-52
2021/06/19 00:15:05;;;;;;;9.83;7.77;;;27.10;54.30;;;;;;5092649;28;20747;-53
2021/06/19 00:17:32;;;;;;;17.00;6.80;;;27.10;54.50;;;;;;5092250;28;20648;-53
2021/06/19 00:19:59;;;;;;;9.60;6.30;;;27.00;54.60;;;;;;5099770;28;20659;-52
2021/06/19 00:22:27;;;;;;;12.93;6.43;;;27.00;54.70;;;;;;5112718;28;20698;-52
2021/06/19 00:24:54;;;;;;;8.27;6.50;;;27.00;54.80;;;;;;5111879;28;20627;-51
2021/06/19 00:27:21;;;;;;;9.03;8.13;;;26.90;54.90;;;;;;5112216;28;20698;-52
2021/06/19 00:29:50;;;;;;;8.53;7.13;;;26.90;55.00;;;;;;5101650;28;20648;-52
2021/06/19 00:32:17;;;;;;;17.13;8.20;;;26.80;55.30;;;;;;5093582;28;21198;-51
2021/06/19 00:34:44;;;;;;;9.97;7.03;;;26.90;55.30;;;;;;5092022;28;20659;-51
2021/06/19 00:37:12;;;;;;;13.77;9.70;;;26.80;55.30;;;;;;5092025;28;21177;-53
2021/06/19 00:39:39;;;;;;;8.07;6.70;;;26.90;55.50;;;;;;5103527;28;20674;-52
2021/06/19 00:42:07;;;;;;;11.73;8.20;;;26.80;55.50;;;;;;5111240;28;22518;-51
2021/06/19 00:44:34;;;;;;;12.27;8.70;;;26.80;55.60;;;;;;5112261;28;20692;-53
2021/06/19 00:47:03;;;;;;;12.10;7.17;;;26.70;55.70;;;;;;5111933;28;20658;-51
2021/06/19 00:49:30;;;;;;;12.07;7.70;;;26.70;56.00;;;;;;5100904;28;20667;-53
2021/06/19 00:51:57;;;;;;;11.93;7.57;;;26.60;56.10;;;;;;5105874;28;21172;-53
2021/06/19 00:54:25;;;;;;;10.30;9.20;;;26.60;56.30;;;;;;5104751;28;20959;-52
2021/06/19 00:56:52;;;;;;;12.17;7.93;;;26.50;56.40;;;;;;5091507;28;20648;-52
2021/06/19 00:59:19;;;;;;;12.07;8.60;;;26.40;56.70;;;;;;5099815;28;20656;-53
2021/06/19 01:01:46;;;;;;;8.97;8.07;;;26.30;57.00;;;;;;5111848;27;20627;-51
2021/06/19 01:04:15;;;;;;;12.13;8.03;;;26.30;57.30;;;;;;5111293;28;20687;-52
2021/06/19 01:06:43;;;;;;;12.40;7.00;;;26.30;57.50;;;;;;5095437;22;20693;-58
2021/06/19 01:09:10;;;;;;;16.97;8.90;;;26.30;57.60;;;;;;5071481;28;20649;-57
2021/06/19 01:11:38;;;;;;;15.53;8.70;;;26.30;57.80;;;;;;5072105;28;21177;-57
2021/06/19 01:14:06;;;;;;;9.13;8.23;;;26.20;58.00;;;;;;5072081;28;20628;-58
2021/06/19 01:16:33;;;;;;;9.27;7.73;;;26.10;58.20;;;;;;5086414;28;20691;-57
2021/06/19 01:19:00;;;;;;;24.20;8.23;;;26.20;58.50;;;;;;5090976;28;21032;-55
2021/06/19 01:21:30;;;;;;;11.37;8.57;;;26.10;58.60;;;;;;5082796;28;20659;-57
2021/06/19 01:23:57;;;;;;;12.53;8.40;;;26.10;58.70;;;;;;5091455;28;21308;-58
2021/06/19 01:26:26;;;;;;;14.47;7.70;;;26.10;58.70;;;;;;5073071;28;21252;-59
2021/06/19 01:28:54;;;;;;;13.03;8.13;;;26.20;58.90;;;;;;5091199;28;21053;-59
2021/06/19 01:31:21;;;;;;;11.43;8.77;;;26.20;58.90;;;;;;5091116;28;20652;-59
2021/06/19 01:33:49;;;;;;;9.67;8.07;;;26.30;58.90;;;;;;5091648;28;20627;-58
2021/06/19 01:36:16;;;;;;;13.57;8.53;;;26.30;58.90;;;;;;5091072;28;21067;-58
2021/06/19 01:38:44;;;;;;;13.53;8.50;;;26.30;58.70;;;;;;5088389;28;20719;-59
2021/06/19 01:41:15;;;;;;;12.70;8.33;;;26.30;58.70;;;;;;5071431;28;20632;-58
2021/06/19 01:43:44;;;;;;;10.63;7.60;;;26.30;58.70;;;;;;5071065;28;20667;-57
2021/06/19 01:46:11;;;;;;;8.93;8.13;;;26.30;58.90;;;;;;5089250;28;20656;-58
2021/06/19 01:48:38;;;;;;;9.03;8.20;;;26.40;58.90;;;;;;5089436;28;20663;-59
2021/06/19 01:51:07;;;;;;;9.40;8.33;;;26.40;59.00;;;;;;5078327;28;20628;-56
2021/06/19 01:53:34;;;;;;;9.97;8.07;;;26.40;59.10;;;;;;5088697;28;20636;-58
2021/06/19 01:56:02;;;;;;;13.13;10.10;;;26.50;59.20;;;;;;5088079;28;21318;-58
2021/06/19 01:58:30;;;;;;;8.77;7.87;;;26.50;59.30;;;;;;5072176;28;20659;-59
2021/06/19 02:00:58;;;;;;;11.30;8.80;;;26.50;59.30;;;;;;5091066;28;20659;-57
2021/06/19 02:03:26;;;;;;;9.70;8.30;;;26.50;59.30;;;;;;5078454;28;20696;-56
2021/06/19 02:05:53;;;;;;;10.40;8.00;;;26.50;59.40;;;;;;5091438;28;21020;-58
2021/06/19 02:08:21;;;;;;;10.23;8.67;;;26.50;59.40;;;;;;5090927;28;20649;-57
2021/06/19 02:10:48;;;;;;;9.30;8.43;;;26.50;59.40;;;;;;5071468;28;21027;-57
2021/06/19 02:13:16;;;;;;;9.90;8.80;;;26.50;59.50;;;;;;5076920;28;20684;-58
2021/06/19 02:15:44;;;;;;;9.73;8.73;;;26.60;59.60;;;;;;5090565;28;20679;-57
2021/06/19 02:18:13;;;;;;;13.90;9.10;;;26.60;59.70;;;;;;5087779;28;21018;-59
2021/06/19 02:20:40;;;;;;;18.23;8.67;;;26.60;59.70;;;;;;5090841;28;20651;-59
2021/06/19 02:23:07;;;;;;;10.20;8.60;;;26.60;59.70;;;;;;5090931;28;20684;-57
2021/06/19 02:25:34;;;;;;;10.37;8.40;;;26.50;59.70;;;;;;5090624;28;21220;-57
2021/06/19 02:28:03;;;;;;;10.13;8.97;;;26.50;59.90;;;;;;5090565;28;20608;-57
2021/06/19 02:30:32;;;;;;;12.00;8.40;;;26.50;60.20;;;;;;5091113;28;21266;-57
2021/06/19 02:32:59;;;;;;;12.47;8.70;;;26.50;60.60;;;;;;5091048;28;20648;-57
2021/06/19 02:35:28;;;;;;;14.23;10.10;;;26.40;61.10;;;;;;5091529;28;20977;-58
2021/06/19 02:37:56;;;;;;;17.73;10.27;;;26.30;61.70;;;;;;5094209;28;20659;-57
2021/06/19 02:40:23;;;;;;;16.50;10.07;;;26.30;62.50;;;;;;5095124;28;20628;-57
2021/06/19 02:42:50;;;;;;;10.40;9.20;;;26.20;63.20;;;;;;5094313;28;20656;-57
2021/06/19 02:45:17;;;;;;;12.10;9.30;;;26.10;64.00;;;;;;5094730;28;20680;-57
2021/06/19 02:47:46;;;;;;;11.03;9.27;;;26.00;64.90;;;;;;5094773;28;20667;-57
2021/06/19 02:50:14;;;;;;;10.80;8.67;;;26.00;65.90;;;;;;5074744;28;20653;-57
2021/06/19 02:52:43;;;;;;;12.20;10.13;;;25.90;66.40;;;;;;5094663;28;20651;-57
2021/06/19 02:55:11;;;;;;;9.83;8.60;;;25.90;66.90;;;;;;5094442;28;20643;-57
2021/06/19 02:57:38;;;;;;;17.03;10.70;;;25.90;67.20;;;;;;5094309;28;20655;-57
2021/06/19 03:00:07;;;;;;;13.50;10.00;;;26.00;67.40;;;;;;5093547;28;20675;-57
2021/06/19 03:02:34;;;;;;;15.20;10.20;;;26.00;67.70;;;;;;5082499;28;20690;-57
2021/06/19 03:05:01;;;;;;;13.17;10.23;;;26.00;67.90;;;;;;5074078;28;20688;-57
2021/06/19 03:07:28;;;;;;;13.13;10.30;;;26.00;68.40;;;;;;5074686;28;21181;-57
2021/06/19 03:09:57;;;;;;;10.00;9.20;;;26.00;68.70;;;;;;5089814;28;20660;-57
2021/06/19 03:12:26;;;;;;;11.03;8.73;;;26.00;69.10;;;;;;5094315;28;20643;-57
2021/06/19 03:14:53;;;;;;;15.57;9.43;;;26.00;69.30;;;;;;5094205;28;20617;-57
2021/06/19 03:17:21;;;;;;;12.73;9.03;;;26.00;69.40;;;;;;5094198;28;20656;-57
2021/06/19 03:19:48;;;;;;;9.27;8.37;;;26.00;69.60;;;;;;5093700;28;20656;-57
2021/06/19 03:22:15;;;;;;;20.30;10.50;;;26.00;69.90;;;;;;5094457;28;21046;-56
2021/06/19 03:24:43;;;;;;;9.90;8.90;;;26.00;70.00;;;;;;5094304;28;20732;-57
2021/06/19 03:27:12;;;;;;;10.20;8.90;;;26.00;70.30;;;;;;5094165;28;20628;-57
2021/06/19 03:29:40;;;;;;;10.10;9.10;;;26.00;70.50;;;;;;5093572;28;20672;-57
2021/06/19 03:32:07;;;;;;;13.57;9.77;;;26.00;70.70;;;;;;5093090;28;20651;-56
2021/06/19 03:34:36;;;;;;;9.67;8.77;;;26.00;71.00;;;;;;5093765;28;20652;-57
2021/06/19 03:37:04;;;;;;;11.70;9.80;;;26.00;71.30;;;;;;5092804;28;21022;-57
2021/06/19 03:39:32;;;;;;;12.33;9.80;;;25.90;71.70;;;;;;5080818;28;21047;-58
2021/06/19 03:42:00;;;;;;;10.43;9.33;;;25.80;72.30;;;;;;5073759;28;20655;-57
2021/06/19 03:44:28;;;;;;;10.30;9.23;;;25.80;72.80;;;;;;5074710;28;20692;-57
2021/06/19 03:46:55;;;;;;;14.20;9.70;;;25.80;73.30;;;;;;5073291;28;21028;-56
2021/06/19 03:49:23;;;;;;;9.70;8.70;;;25.80;73.80;;;;;;5084333;28;20667;-57
2021/06/19 03:51:50;;;;;;;14.30;10.23;;;25.80;74.30;;;;;;5093799;28;20652;-57
2021/06/19 03:54:17;;;;;;;13.40;10.40;;;25.70;74.60;;;;;;5093730;28;20686;-57
2021/06/19 03:56:44;;;;;;;16.00;9.37;;;25.80;75.00;;;;;;5093316;28;20684;-57
2021/06/19 03:59:11;;;;;;;12.83;9.20;;;25.80;75.30;;;;;;5073328;28;20701;-57
2021/06/19 04:01:40;;;;;;;10.53;9.53;;;25.80;75.40;;;;;;5093206;28;21199;-57
2021/06/19 04:04:07;;;;;;;10.50;8.67;;;25.80;75.60;;;;;;5092703;28;20691;-57
2021/06/19 04:06:35;;;;;;;13.20;10.47;;;25.80;75.70;;;;;;5092670;28;20652;-58
2021/06/19 04:09:02;;;;;;;17.17;11.63;;;25.80;76.00;;;;;;5074614;28;20620;-57
2021/06/19 04:11:29;;;;;;;11.70;10.63;;;25.70;77.00;;;;;;5093362;28;20635;-57
2021/06/19 04:13:56;;;;;;;15.07;10.27;;;25.60;76.90;;;;;;5093213;28;20652;-57
2021/06/19 04:16:23;;;;;;;11.90;10.33;;;25.60;77.60;;;;;;5093156;28;20695;-58
2021/06/19 04:18:52;;;;;;;17.20;11.03;;;25.50;78.20;;;;;;5072840;28;20665;-58
2021/06/19 04:21:19;;;;;;;13.33;10.20;;;25.50;78.70;;;;;;5092337;28;20648;-56
2021/06/19 04:23:46;;;;;;;16.83;10.60;;;25.40;79.20;;;;;;5092718;28;20663;-55
2021/06/19 04:26:14;;;;;;;14.20;10.07;;;25.40;79.60;;;;;;5082336;28;20722;-57
2021/06/19 04:28:41;;;;;;;14.93;11.17;;;25.30;80.00;;;;;;5090074;28;20705;-57
2021/06/19 04:31:08;;;;;;;12.10;10.53;;;25.30;80.50;;;;;;5092774;28;21265;-56
2021/06/19 04:33:35;;;;;;;11.77;10.70;;;25.30;80.80;;;;;;5092510;28;20689;-57
2021/06/19 04:36:05;;;;;;;11.63;10.27;;;25.30;81.10;;;;;;5092332;28;20680;-57
2021/06/19 04:38:32;;;;;;;13.83;10.90;;;25.30;81.40;;;;;;5091140;28;20648;-55
2021/06/19 04:41:02;;;;;;;14.17;12.87;;;25.30;81.80;;;;;;5092475;28;20644;-57
2021/06/19 04:43:32;;;;;;;13.13;11.00;;;25.20;82.20;;;;;;5092696;28;20692;-57
2021/06/19 04:45:59;;;;;;;10.37;9.47;;;25.20;82.50;;;;;;5092109;28;21200;-57
2021/06/19 04:48:26;;;;;;;12.97;10.50;;;25.20;83.00;;;;;;5089278;28;20655;-57
2021/06/19 04:50:53;;;;;;;12.63;11.07;;;25.20;83.20;;;;;;5077587;28;20994;-57
2021/06/19 04:53:23;;;;;;;13.90;10.83;;;25.30;83.30;;;;;;5082628;28;20656;-59
2021/06/19 04:55:50;;;;;;;14.37;12.23;;;25.30;83.30;;;;;;5087990;28;20687;-58
2021/06/19 04:58:17;;;;;;;14.40;10.33;;;25.30;83.40;;;;;;5071846;28;20649;-58
2021/06/19 05:00:44;;;;;;;14.30;12.80;;;25.40;83.30;;;;;;5071855;28;20664;-56
2021/06/19 05:03:13;;;;;;;13.53;12.03;;;25.40;83.10;;;;;;5083304;28;20642;-58
2021/06/19 05:05:41;;;;;;;11.60;10.60;;;25.50;83.30;;;;;;5083395;28;20778;-57
2021/06/19 05:08:08;;;;;;;14.80;11.87;;;25.50;83.30;;;;;;5088276;28;21176;-58
2021/06/19 05:10:36;;;;;;;15.10;12.47;;;25.50;83.70;;;;;;5091576;28;20625;-58
2021/06/19 05:13:03;;;;;;;14.10;12.90;;;25.40;84.40;;;;;;5062171;28;20633;-57
2021/06/19 05:15:31;;;;;;;13.60;11.93;;;25.40;84.00;;;;;;5077775;28;20680;-56
2021/06/19 05:17:58;;;;;;;13.20;11.80;;;25.30;84.50;;;;;;5091035;28;20640;-58
2021/06/19 05:20:27;;;;;;;12.70;11.70;;;25.30;84.60;;;;;;5081119;28;20648;-56
2021/06/19 05:22:54;;;;;;;12.83;11.37;;;25.40;84.80;;;;;;5091892;28;21242;-57
2021/06/19 05:25:21;;;;;;;16.13;11.07;;;25.40;84.60;;;;;;5091507;28;20806;-57
2021/06/19 05:27:50;;;;;;;12.70;11.23;;;25.40;84.40;;;;;;5091715;28;20655;-57
2021/06/19 05:30:18;;;;;;;12.00;10.73;;;25.50;84.60;;;;;;5073155;28;20632;-57
2021/06/19 05:32:45;;;;;;;13.20;11.90;;;25.50;84.50;;;;;;5091467;28;20683;-56
2021/06/19 05:35:13;;;;;;;11.83;10.80;;;25.60;84.20;;;;;;5086289;28;20672;-56
2021/06/19 05:37:40;;;;;;;11.20;10.10;;;25.60;83.80;;;;;;5071158;28;21220;-57
2021/06/19 05:40:08;;;;;;;12.00;10.87;;;25.70;83.60;;;;;;5076806;28;20652;-57
2021/06/19 05:42:35;;;;;;;21.70;11.30;;;25.70;83.00;;;;;;5091839;28;20627;-58
2021/06/19 05:45:05;;;;;;;11.43;10.33;;;25.80;82.90;;;;;;5091029;28;20691;-57
2021/06/19 05:47:32;;;;;;;13.57;11.50;;;25.90;82.20;;;;;;5091525;28;20636;-57
2021/06/19 05:49:59;;;;;;;11.63;10.53;;;25.80;82.00;;;;;;5083610;28;20981;-57
2021/06/19 05:52:26;;;;;;;13.27;10.93;;;25.90;81.60;;;;;;5087106;28;20628;-55
2021/06/19 05:54:53;;;;;;;10.80;9.80;;;25.80;81.20;;;;;;5085849;28;20651;-56
2021/06/19 05:57:21;;;;;;;11.13;9.93;;;25.80;81.10;;;;;;5071281;28;20665;-57
2021/06/19 05:59:48;;;;;;;10.07;8.90;;;25.80;80.80;;;;;;5072558;28;20648;-56
2021/06/19 06:02:18;;;;;;;9.37;8.40;;;25.90;79.20;;;;;;5074112;28;20621;-58
2021/06/19 06:04:45;;;;;;;9.53;8.43;;;26.00;78.00;;;;;;5075139;28;21020;-57
2021/06/19 06:07:13;;;;;;;10.60;9.60;;;26.00;77.80;;;;;;5080429;28;20628;-57
2021/06/19 06:09:40;;;;;;;9.40;8.60;;;26.00;77.50;;;;;;5090675;28;20657;-58
2021/06/19 06:12:08;;;;;;;10.17;8.03;;;26.10;77.10;;;;;;5084717;28;20649;-57
2021/06/19 06:14:36;;;;;;;9.77;7.77;;;26.20;76.10;;;;;;5089260;28;20671;-57
2021/06/19 06:17:03;;;;;;;8.33;7.63;;;26.20;75.20;;;;;;5095452;28;21023;-58
2021/06/19 06:19:32;;;;;;;8.80;8.00;;;26.30;75.00;;;;;;5088348;28;20653;-58
2021/06/19 06:21:59;;;;;;;8.40;7.70;;;26.30;74.50;;;;;;5089139;28;20714;-56
2021/06/19 06:24:26;;;;;;;7.77;7.07;;;26.40;72.90;;;;;;5095103;28;20652;-57
2021/06/19 06:26:53;;;;;;;7.63;7.00;;;26.30;72.50;;;;;;5095050;28;20672;-57
2021/06/19 06:29:21;;;;;;;9.27;8.37;;;26.30;71.90;;;;;;5094714;28;20659;-57
2021/06/19 06:31:48;;;;;;;10.77;8.27;;;26.30;72.30;;;;;;5095292;28;20667;-57
2021/06/19 06:34:15;;;;;;;10.33;6.37;;;26.30;72.20;;;;;;5095074;28;20644;-56
2021/06/19 06:36:44;;;;;;;8.60;7.87;;;26.30;71.50;;;;;;5094689;28;20683;-57
2021/06/19 06:39:11;;;;;;;9.90;7.30;;;26.30;71.30;;;;;;5091700;28;20645;-59
2021/06/19 06:41:38;;;;;;;8.53;7.63;;;26.40;71.60;;;;;;5081432;28;20659;-58
2021/06/19 06:44:06;;;;;;;8.73;7.70;;;26.40;71.50;;;;;;5095128;28;20670;-57
2021/06/19 06:46:34;;;;;;;8.10;6.77;;;26.50;71.10;;;;;;5094615;28;20744;-58
2021/06/19 06:49:01;;;;;;;7.30;6.70;;;26.50;71.00;;;;;;5081621;28;20656;-59
2021/06/19 06:51:28;;;;;;;9.17;6.80;;;26.60;70.80;;;;;;5084387;28;20664;-58
2021/06/19 06:53:57;;;;;;;10.17;7.40;;;26.70;70.40;;;;;;5091618;28;20656;-58
2021/06/19 06:56:24;;;;;;;9.03;7.30;;;26.70;70.20;;;;;;5074383;28;20687;-58
2021/06/19 06:58:51;;;;;;;7.60;6.57;;;26.80;69.60;;;;;;5074996;28;20644;-59
2021/06/19 07:01:18;;;;;;;11.53;6.70;;;26.90;69.10;;;;;;5083340;28;20615;-59
2021/06/19 07:03:46;;;;;;;7.10;6.40;;;26.90;68.50;;;;;;5093921;28;20733;-57
2021/06/19 07:06:13;;;;;;;8.00;6.90;;;27.00;68.20;;;;;;5084819;22;20711;-49
2021/06/19 07:08:40;;;;;;;8.70;6.57;;;27.00;68.20;;;;;;5059924;28;20653;-50
2021/06/19 07:11:09;;;;;;;7.87;7.17;;;27.10;68.40;;;;;;5058039;28;20991;-49
2021/06/19 07:13:36;;;;;;;8.93;8.13;;;27.10;68.40;;;;;;5052692;28;20658;-51
2021/06/19 07:16:03;;;;;;;9.03;8.23;;;27.10;68.90;;;;;;5051837;28;20693;-49
2021/06/19 07:18:30;;;;;;;11.73;7.10;;;27.10;69.00;;;;;;5053020;28;20654;-52
2021/06/19 07:20:58;;;;;;;6.43;5.93;;;27.10;69.00;;;;;;5053353;28;20633;-52
2021/06/19 07:23:25;;;;;;;8.07;6.70;;;27.20;68.80;;;;;;5050581;28;20650;-52
2021/06/19 07:25:53;;;;;;;11.43;7.10;;;27.20;67.90;;;;;;5042002;28;20690;-51
2021/06/19 07:28:21;;;;;;;7.67;6.87;;;27.20;67.70;;;;;;5046090;28;20650;-51
2021/06/19 07:30:49;;;;;;;8.57;6.40;;;27.30;66.80;;;;;;5033297;28;21229;-51
2021/06/19 07:33:16;;;;;;;6.90;6.20;;;27.40;66.30;;;;;;5043548;28;20657;-52
2021/06/19 07:35:43;;;;;;;8.63;5.10;;;27.50;65.50;;;;;;5053320;28;20665;-52
2021/06/19 07:38:11;;;;;;;6.37;5.67;;;27.50;65.40;;;;;;5051317;28;20737;-51
2021/06/19 07:40:38;;;;;;;7.07;6.20;;;27.70;64.10;;;;;;5050387;28;21270;-52
2021/06/19 07:43:06;;;;;;;8.73;6.87;;;27.70;63.30;;;;;;5052226;28;20656;-51
2021/06/19 07:45:34;;;;;;;9.23;5.00;;;27.80;63.10;;;;;;5052796;28;20661;-52
2021/06/19 07:48:01;;;;;;;6.77;4.70;;;27.90;62.00;;;;;;5052816;28;20633;-53
2021/06/19 07:50:29;;;;;;;6.17;5.40;;;28.10;59.70;;;;;;5052421;28;20650;-52
2021/06/19 07:52:59;;;;;;;8.77;5.53;;;28.30;59.90;;;;;;5034801;28;20631;-53
2021/06/19 07:55:26;;;;;;;6.03;5.43;;;28.40;59.30;;;;;;5051569;28;20662;-53
2021/06/19 07:57:57;;;;;;;5.80;5.30;;;28.60;58.90;;;;;;5052280;28;20665;-52
2021/06/19 08:00:25;;;;;;;8.23;4.33;;;28.60;58.10;;;;;;5053036;28;20626;-52
2021/06/19 08:02:54;;;;;;;5.30;4.67;;;28.70;58.40;;;;;;5047874;28;20749;-55
2021/06/19 08:05:28;;;;;;;5.67;5.27;;;28.80;57.70;;;;;;5045713;28;20670;-52
2021/06/19 08:07:58;;;;;;;5.27;4.77;;;28.90;57.00;;;;;;5035145;28;20671;-54
2021/06/19 08:10:26;;;;;;;7.23;6.33;;;29.00;57.10;;;;;;5038633;28;20648;-52
2021/06/19 08:12:53;;;;;;;7.60;6.20;;;29.10;56.60;;;;;;5044051;28;20626;-54
2021/06/19 08:15:21;;;;;;;5.70;4.77;;;29.20;56.00;;;;;;5043901;28;20661;-50
2021/06/19 08:17:51;;;;;;;7.70;4.10;;;29.40;54.50;;;;;;5037625;28;21062;-53
2021/06/19 08:20:19;;;;;;;13.10;5.07;;;29.40;54.00;;;;;;5033172;28;20654;-52
2021/06/19 08:22:50;;;;;;;4.23;3.80;;;29.50;53.30;;;;;;5049352;28;20722;-55
2021/06/19 08:25:17;;;;;;;4.70;3.33;;;29.50;52.30;;;;;;5038077;28;20679;-53
2021/06/19 08:27:44;;;;;;;7.23;4.33;;;29.50;52.30;;;;;;5045060;28;20697;-51
2021/06/19 08:30:12;;;;;;;4.93;4.33;;;29.60;52.50;;;;;;5048624;28;20676;-51
2021/06/19 08:32:39;;;;;;;7.53;3.97;;;29.70;51.90;;;;;;5041112;28;20726;-53
2021/06/19 08:35:07;;;;;;;6.00;3.40;;;29.70;51.10;;;;;;5042679;28;21241;-50
2021/06/19 08:37:36;;;;;;;6.10;3.57;;;29.60;51.20;;;;;;5044084;28;20688;-53
2021/06/19 08:40:03;;;;;;;5.37;4.50;;;29.50;51.20;;;;;;5045908;28;20634;-51
2021/06/19 08:42:30;;;;;;;6.17;3.97;;;29.50;51.40;;;;;;5034624;28;20666;-52
2021/06/19 08:44:58;;;;;;;7.60;3.50;;;29.50;51.70;;;;;;5038907;28;20654;-51
2021/06/19 08:47:26;;;;;;;4.13;3.73;;;29.40;51.20;;;;;;5035978;28;20675;-51
2021/06/19 08:49:53;;;;;;;4.80;4.13;;;29.40;50.70;;;;;;5035788;28;21051;-52
2021/06/19 08:52:21;;;;;;;4.83;3.30;;;29.30;51.20;;;;;;5051126;28;20673;-50
2021/06/19 08:54:49;;;;;;;7.60;3.73;;;29.20;51.40;;;;;;5041183;28;20631;-51
2021/06/19 08:57:16;;;;;;;4.87;3.70;;;29.30;51.40;;;;;;5038248;28;20619;-50
2021/06/19 08:59:50;;;;;;;5.07;4.57;;;29.30;51.70;;;;;;5047662;28;20609;-53
2021/06/19 09:02:18;;;;;;;5.53;2.90;;;29.30;52.10;;;;;;5036265;28;20622;-52
2021/06/19 09:04:52;;;;;;;4.43;4.03;;;29.40;51.80;;;;;;5042549;28;20681;-50
2021/06/19 09:07:35;;;;;;;4.87;3.93;;;29.40;50.90;;;;;;5043964;28;20704;-50
2021/06/19 09:10:21;;;;;;;6.27;3.30;;;29.50;50.60;;;;;;5034431;28;20715;-51
2021/06/19 09:12:59;;;;;;;4.03;2.97;;;29.60;50.30;;;;;;5049249;28;20753;-52
2021/06/19 09:15:27;;;;;;;3.43;2.93;;;29.60;49.40;;;;;;5045198;28;21287;-54
2021/06/19 09:18:19;;;;;;;3.93;3.63;;;29.70;48.80;;;;;;5033768;28;20659;-53
2021/06/19 09:20:50;;;;;;;3.10;2.90;;;29.80;48.60;;;;;;5029892;28;20642;-52
2021/06/19 09:23:18;;;;;;;4.20;3.80;;;30.00;47.70;;;;;;5050441;28;20622;-54
2021/06/19 09:25:46;;;;;;;3.40;3.10;;;30.30;46.80;;;;;;5035034;28;20679;-52
2021/06/19 09:28:14;;;;;;;4.10;3.70;;;30.60;46.30;;;;;;5041636;28;20676;-52
2021/06/19 09:30:41;;;;;;;3.00;2.80;;;30.80;45.40;;;;;;5048702;28;21209;-52
2021/06/19 09:33:10;;;;;;;3.73;3.17;;;31.10;45.00;;;;;;5040305;28;20654;-53
2021/06/19 09:35:38;;;;;;;3.90;3.23;;;31.30;44.80;;;;;;5031632;28;20705;-51
2021/06/19 09:38:07;;;;;;;3.40;3.10;;;31.40;44.40;;;;;;5045456;28;20657;-52
2021/06/19 09:40:35;;;;;;;11.80;4.10;;;31.30;44.40;;;;;;5041070;28;21219;-54
2021/06/19 09:43:14;;;;;;;4.50;3.90;;;31.20;44.60;;;;;;5036254;28;20649;-51
2021/06/19 09:45:43;;;;;;;4.10;3.50;;;31.10;44.60;;;;;;5040828;28;20692;-52
2021/06/19 09:48:26;;;;;;;5.77;3.43;;;31.00;44.70;;;;;;5039222;28;20678;-54
2021/06/19 09:51:17;;;;;;;5.07;3.40;;;30.90;44.90;;;;;;5034021;28;20626;-51
2021/06/19 09:53:48;;;;;;;3.87;3.53;;;30.80;45.10;;;;;;5044035;28;20622;-52
2021/06/19 09:56:16;;;;;;;4.83;3.63;;;30.70;45.50;;;;;;5036143;28;20697;-49
2021/06/19 09:58:45;;;;;;;6.47;3.57;;;30.60;45.70;;;;;;5040204;28;20662;-52
2021/06/19 10:01:18;;;;;;;3.90;3.60;;;30.50;46.00;;;;;;5040779;28;20661;-50
2021/06/19 10:03:52;;;;;;;6.70;3.60;;;30.50;46.10;;;;;;5047854;28;20692;-51
2021/06/19 10:06:20;;;;;;;3.77;3.13;;;30.40;46.60;;;;;;5044707;28;20701;-50
2021/06/19 10:08:48;;;;;;;5.17;3.57;;;30.30;46.40;;;;;;5049546;28;21251;-53
2021/06/19 10:11:15;;;;;;;6.13;4.10;;;30.30;46.90;;;;;;5045037;28;20669;-51
2021/06/19 10:13:44;;;;;;;3.87;3.50;;;30.30;46.60;;;;;;5047091;28;21149;-51
2021/06/19 10:16:12;;;;;;;4.33;3.83;;;30.30;46.30;;;;;;5032262;28;20662;-52
2021/06/19 10:18:40;;;;;;;6.17;4.47;;;30.30;46.30;;;;;;5037351;28;20734;-53
2021/06/19 10:21:07;;;;;;;4.40;4.10;;;30.40;46.40;;;;;;5045586;28;20699;-54
2021/06/19 10:23:34;;;;;;;4.43;4.07;;;30.40;46.10;;;;;;5044554;28;20669;-51
2021/06/19 10:26:02;;;;;;;5.77;5.10;;;30.40;45.90;;;;;;5048934;28;20689;-52
2021/06/19 10:28:29;;;;;;;5.20;4.30;;;30.40;46.00;;;;;;5048787;28;20682;-52
2021/06/19 10:30:58;;;;;;;5.57;3.80;;;30.40;46.10;;;;;;5046465;28;20670;-52
2021/06/19 10:33:26;;;;;;;8.13;3.90;;;30.40;46.30;;;;;;5038051;28;20651;-52
2021/06/19 10:35:54;;;;;;;4.43;3.67;;;30.40;46.50;;;;;;5054490;28;20680;-52
2021/06/19 10:38:25;;;;;;;5.40;5.00;;;30.40;46.50;;;;;;5033884;28;20655;-52
2021/06/19 10:40:52;;;;;;;12.80;4.40;;;30.40;46.70;;;;;;5045770;28;20622;-53
2021/06/19 10:43:21;;;;;;;6.80;4.40;;;30.50;46.60;;;;;;5040725;28;20658;-52
2021/06/19 10:45:48;;;;;;;6.17;4.40;;;30.50;46.40;;;;;;5036554;28;21011;-52
2021/06/19 10:48:17;;;;;;;9.07;4.90;;;30.60;46.30;;;;;;5049193;28;20693;-50
2021/06/19 10:50:45;;;;;;;10.33;4.93;;;30.60;45.90;;;;;;5049080;28;20657;-52
2021/06/19 10:53:13;;;;;;;8.00;4.80;;;30.60;46.00;;;;;;5049549;28;20665;-52
2021/06/19 10:55:57;;;;;;;7.87;6.43;;;30.70;46.40;;;;;;5038258;28;21007;-54
2021/06/19 10:58:25;;;;;;;10.30;8.67;;;30.70;45.80;;;;;;5048325;28;20669;-53
2021/06/19 11:00:53;;;;;;;5.90;4.93;;;30.70;45.90;;;;;;5044091;28;20634;-52
2021/06/19 11:03:40;;;;;;;13.40;5.87;;;30.80;45.90;;;;;;5041912;28;20662;-51
2021/06/19 11:06:21;;;;;;;5.23;4.73;;;30.80;45.30;;;;;;5032191;28;21191;-53
2021/06/19 11:09:10;;;;;;;6.20;5.37;;;30.90;44.40;;;;;;5033484;28;20694;-52
2021/06/19 11:11:51;;;;;;;9.50;6.00;;;30.90;44.40;;;;;;5037426;28;20626;-53
2021/06/19 11:14:58;;;;;;;6.27;5.67;;;31.00;44.00;;;;;;5052112;28;20687;-53
2021/06/19 11:17:45;;;;;;;7.73;4.90;;;31.00;44.40;;;;;;5033736;28;20631;-52
2021/06/19 11:20:32;;;;;;;6.73;5.70;;;31.10;44.70;;;;;;5032825;28;21023;-52
2021/06/19 11:23:06;;;;;;;6.13;4.80;;;31.30;44.60;;;;;;5045415;28;20680;-52
2021/06/19 11:25:44;;;;;;;7.07;5.40;;;31.40;44.50;;;;;;5049075;28;20659;-52
2021/06/19 11:28:14;;;;;;;6.40;5.90;;;31.40;44.20;;;;;;5049643;28;20762;-55
2021/06/19 11:30:46;;;;;;;4.60;4.20;;;31.50;43.80;;;;;;5050374;28;21228;-52
2021/06/19 11:33:38;;;;;;;5.77;5.30;;;31.60;43.00;;;;;;5042150;28;20630;-52
2021/06/19 11:36:39;;;;;;;6.20;5.60;;;31.70;43.10;;;;;;5051820;28;21007;-55
2021/06/19 11:39:14;;;;;;;6.33;5.70;;;31.90;43.20;;;;;;5037902;28;20630;-53
2021/06/19 11:41:48;;;;;;;5.07;4.57;;;32.10;43.60;;;;;;5048190;28;20630;-56
2021/06/19 11:44:21;;;;;;;8.13;5.10;;;32.20;43.60;;;;;;5040436;28;21182;-54
2021/06/19 11:46:53;;;;;;;5.80;5.13;;;32.30;43.40;;;;;;5048408;28;20685;-52
2021/06/19 11:49:25;;;;;;;6.00;5.40;;;32.40;42.50;;;;;;5050426;28;20625;-54
2021/06/19 11:51:54;;;;;;;5.10;4.67;;;32.40;42.10;;;;;;5045744;28;20629;-54
2021/06/19 11:54:21;;;;;;;5.27;4.53;;;32.30;41.70;;;;;;5049048;28;20611;-53
2021/06/19 11:56:49;;;;;;;5.93;4.53;;;32.40;41.80;;;;;;5033080;28;20682;-53
2021/06/19 11:59:16;;;;;;;5.57;5.00;;;32.50;41.90;;;;;;5032023;28;20647;-53
2021/06/19 12:01:49;;;;;;;5.10;4.63;;;32.50;41.60;;;;;;5032352;28;20658;-54
2021/06/19 12:04:17;;;;;;;4.67;4.10;;;32.60;40.90;;;;;;5041727;28;20642;-53
2021/06/19 12:06:45;;;;;;;6.83;6.13;;;32.60;40.70;;;;;;5047808;28;20751;-53
2021/06/19 12:09:17;;;;;;;8.30;5.10;;;32.60;40.40;;;;;;5031757;28;21030;-53
2021/06/19 12:11:48;;;;;;;5.70;5.20;;;32.60;40.40;;;;;;5048492;28;20621;-53
2021/06/19 12:14:20;;;;;;;6.13;4.70;;;32.60;39.90;;;;;;5051719;28;21346;-53
2021/06/19 12:16:49;;;;;;;6.57;5.53;;;32.60;39.90;;;;;;5036486;28;20738;-52
2021/06/19 12:19:17;;;;;;;5.30;4.80;;;32.50;40.10;;;;;;5034385;28;21167;-53
2021/06/19 12:21:45;;;;;;;6.97;4.40;;;32.40;40.00;;;;;;5051230;28;20991;-53
2021/06/19 12:24:27;;;;;;;6.80;5.57;;;32.50;40.40;;;;;;5047688;28;20692;-52
2021/06/19 12:26:59;;;;;;;10.50;4.97;;;32.50;40.60;;;;;;5048766;28;20694;-53
2021/06/19 12:29:33;;;;;;;9.70;5.00;;;32.50;40.50;;;;;;5050120;28;20701;-52
2021/06/19 12:32:00;;;;;;;6.00;4.37;;;32.50;40.50;;;;;;5046187;28;20692;-53
2021/06/19 12:34:28;;;;;;;5.97;5.33;;;32.40;40.50;;;;;;5034059;28;20670;-54
2021/06/19 12:36:55;;;;;;;5.80;5.20;;;32.30;40.60;;;;;;5029967;28;20686;-52
2021/06/19 12:39:23;;;;;;;8.43;6.50;;;32.20;40.90;;;;;;5034978;28;20657;-52
2021/06/19 12:41:51;;;;;;;8.67;5.90;;;32.20;41.70;;;;;;5030648;28;20655;-53
2021/06/19 12:44:19;;;;;;;6.10;4.40;;;32.30;42.30;;;;;;5036702;28;20692;-53
2021/06/19 12:46:46;;;;;;;7.10;5.33;;;32.20;42.10;;;;;;5035411;28;20701;-53
2021/06/19 12:49:13;;;;;;;6.23;5.53;;;32.20;42.10;;;;;;5029397;28;20705;-52